Time;durP1;ratioP1;P1;durP2;ratioP2;P2;SDS_P1;SDS_P2;PMS_P1;PMS_P2;Temp;Humidity;BMP_temperature;BMP_pressure;BME280_temperature;BME280_humidity;BME280_pressure;Samples;Min_cycle;Max_cycle;Signal;HPM_P1;HPM_P2
2021/08/26 03:13:59;;;;;;;;;;;;;;;5.44;90.08;99487.66;5541953;23;20012;-86
2021/08/26 03:16:25;;;;;;;;;;;;;;;5.55;89.57;99479.50;4971600;28;20365;-94
2021/08/26 03:18:50;;;;;;;;;;;;;;;5.43;90.20;99475.44;4968273;28;19985;-93
2021/08/26 03:21:15;;;;;;;;;;;;;;;5.49;90.38;99474.41;4965492;28;19924;-87
2021/08/26 03:23:40;;;;;;;;;;;;;;;5.48;90.67;99473.56;4949844;28;19966;-86
2021/08/26 03:26:06;;;;;;;;;;;;;;;5.68;94.77;99474.75;4965541;28;19968;-93
2021/08/26 03:28:31;;;;;;;;;;;;;;;5.79;97.36;99477.94;4947966;28;20289;-88
2021/08/26 03:30:56;;;;;;;;;;;;;;;5.83;98.30;99467.31;4948711;28;20362;-88
2021/08/26 03:33:22;;;;;;;;;;;;;;;5.91;99.15;99463.63;4966218;28;19962;-91
2021/08/26 03:35:49;;;;;;;;;;;;;;;6.06;100.00;99472.84;4949025;28;19934;-89
2021/08/26 03:38:14;;;;;;;;;;;;;;;6.15;100.00;99477.84;4966244;28;19918;-88
2021/08/26 03:40:39;;;;;;;;;;;;;;;6.09;100.00;99473.59;4966207;28;19929;-92
2021/08/26 03:43:05;;;;;;;;;;;;;;;5.90;99.93;99475.88;4964582;28;19953;-87
2021/08/26 03:45:30;;;;;;;;;;;;;;;5.87;99.47;99470.72;4948965;28;20324;-93
2021/08/26 03:47:55;;;;;;;;;;;;;;;5.82;100.00;99460.34;4966338;28;19918;-90
2021/08/26 03:50:21;;;;;;;;;;;;;;;5.85;99.95;99467.25;4948842;28;20325;-91
2021/08/26 03:52:46;;;;;;;;;;;;;;;5.86;98.92;99469.00;4965895;28;19965;-90
2021/08/26 03:55:11;;;;;;;;;;;;;;;5.98;100.00;99471.31;4946769;28;19945;-90
2021/08/26 03:57:36;;;;;;;;;;;;;;;6.00;100.00;99474.75;4948389;28;19918;-90
2021/08/26 04:00:02;;;;;;;;;;;;;;;6.03;100.00;99475.56;4947940;28;20017;-90
2021/08/26 04:02:27;;;;;;;;;;;;;;;6.21;100.00;99477.66;4948596;28;20294;-91
2021/08/26 04:04:52;;;;;;;;;;;;;;;6.55;100.00;99463.47;4948396;28;20405;-88
2021/08/26 04:07:18;;;;;;;;;;;;;;;6.69;100.00;99471.78;4965747;28;19918;-91
2021/08/26 04:09:44;;;;;;;;;;;;;;;6.65;100.00;99471.94;4965697;28;19929;-89
2021/08/26 04:12:10;;;;;;;;;;;;;;;6.56;100.00;99459.94;4947784;28;19925;-89
2021/08/26 04:14:35;;;;;;;;;;;;;;;6.47;100.00;99468.13;4946857;28;19926;-91
2021/08/26 04:17:00;;;;;;;;;;;;;;;6.30;100.00;99464.25;4948855;28;20215;-89
2021/08/26 04:19:25;;;;;;;;;;;;;;;6.27;100.00;99464.31;4965236;28;20301;-88
2021/08/26 04:21:51;;;;;;;;;;;;;;;6.18;100.00;99461.97;4948794;28;19958;-88
2021/08/26 04:24:16;;;;;;;;;;;;;;;6.19;100.00;99461.06;4946207;28;19973;-87
2021/08/26 04:26:41;;;;;;;;;;;;;;;6.24;100.00;99458.28;4947689;28;20377;-87
2021/08/26 04:29:08;;;;;;;;;;;;;;;6.04;100.00;99451.00;4946511;28;19919;-91
2021/08/26 04:31:34;;;;;;;;;;;;;;;6.04;100.00;99456.25;4947101;28;19922;-88
2021/08/26 04:33:59;;;;;;;;;;;;;;;6.01;100.00;99451.94;4964709;28;20346;-88
2021/08/26 04:36:24;;;;;;;;;;;;;;;5.94;100.00;99460.91;4965728;28;19957;-88
2021/08/26 04:38:49;;;;;;;;;;;;;;;5.84;100.00;99465.56;4947799;28;20013;-88
2021/08/26 04:41:15;;;;;;;;;;;;;;;5.74;100.00;99470.19;4947500;28;19926;-91
2021/08/26 04:43:40;;;;;;;;;;;;;;;5.91;99.17;99461.84;4963861;28;19918;-93
2021/08/26 04:46:05;;;;;;;;;;;;;;;5.88;98.82;99461.06;4949053;28;20386;-91
2021/08/26 04:48:30;;;;;;;;;;;;;;;5.78;99.46;99463.09;4964963;28;19918;-87
2021/08/26 04:50:56;;;;;;;;;;;;;;;5.80;99.35;99463.91;4948505;28;20290;-90
2021/08/26 07:40:51;;;;;;;;;;;;;;;5.50;95.54;99465.63;4951381;29;19934;-89
2021/08/26 07:43:16;;;;;;;;;;;;;;;5.49;95.55;99459.53;4938946;29;19926;-93
2021/08/26 07:45:41;;;;;;;;;;;;;;;5.41;95.69;99457.09;4956350;29;19919;-89
2021/08/26 07:48:06;;;;;;;;;;;;;;;5.48;95.66;99464.81;4956016;29;19926;-92
2021/08/26 07:50:32;;;;;;;;;;;;;;;5.52;95.58;99464.69;4939257;29;19919;-93
2021/08/26 07:52:57;;;;;;;;;;;;;;;5.41;95.74;99462.34;4954927;29;19945;-93
2021/08/26 07:55:22;;;;;;;;;;;;;;;5.48;95.79;99462.19;4939061;29;19922;-88
2021/08/26 07:57:48;;;;;;;;;;;;;;;5.55;95.33;99461.09;4955459;29;19922;-88
2021/08/26 08:00:13;;;;;;;;;;;;;;;5.46;95.47;99464.84;4939333;29;19926;-89
2021/08/26 08:02:38;;;;;;;;;;;;;;;5.46;95.84;99470.13;4956184;29;19923;-92
2021/08/26 08:05:04;;;;;;;;;;;;;;;5.60;96.67;99467.09;4956171;29;19961;-92
2021/08/26 08:07:29;;;;;;;;;;;;;;;5.51;95.65;99468.22;4955902;29;19982;-93
2021/08/26 08:09:54;;;;;;;;;;;;;;;5.50;96.24;99468.25;4955675;29;20349;-88
2021/08/26 08:12:22;;;;;;;;;;;;;;;5.57;95.49;99467.19;4955020;28;19919;-89
2021/08/26 08:14:47;;;;;;;;;;;;;;;5.49;96.27;99470.03;4937403;29;19919;-91
2021/08/26 08:17:13;;;;;;;;;;;;;;;5.60;95.84;99469.72;4938593;29;19915;-91
2021/08/26 08:19:38;;;;;;;;;;;;;;;5.49;96.39;99467.41;4938708;29;19922;-88
2021/08/26 08:22:03;;;;;;;;;;;;;;;5.59;96.32;99468.88;4938435;29;19966;-87
2021/08/26 08:24:29;;;;;;;;;;;;;;;5.59;96.61;99468.88;4937245;29;19933;-88
2021/08/26 08:26:54;;;;;;;;;;;;;;;5.49;96.78;99470.03;4955570;29;20338;-88
2021/08/26 08:29:20;;;;;;;;;;;;;;;5.56;96.75;99470.72;4938334;29;19926;-89
2021/08/26 08:31:45;;;;;;;;;;;;;;;5.60;96.87;99473.22;4955557;29;20388;-89
2021/08/26 08:34:10;;;;;;;;;;;;;;;5.63;96.76;99467.88;4938497;29;19922;-92
2021/08/26 08:36:37;;;;;;;;;;;;;;;5.73;98.23;99472.91;4938290;29;20393;-88
2021/08/26 08:39:02;;;;;;;;;;;;;;;5.72;96.83;99473.78;4953560;29;19923;-88
2021/08/26 08:41:28;;;;;;;;;;;;;;;5.55;96.89;99466.34;4938433;29;19988;-92
2021/08/26 08:43:56;;;;;;;;;;;;;;;5.64;96.66;99469.59;4955345;29;20370;-88
2021/08/26 08:46:22;;;;;;;;;;;;;;;5.61;96.83;99472.31;4937729;29;19919;-88
2021/08/26 08:48:48;;;;;;;;;;;;;;;5.56;97.08;99470.72;4937300;29;20388;-89
2021/08/26 08:51:14;;;;;;;;;;;;;;;5.55;97.29;99469.00;4955019;29;19918;-92
2021/08/26 08:53:40;;;;;;;;;;;;;;;5.74;96.88;99471.97;4953948;29;19922;-88
2021/08/26 08:56:06;;;;;;;;;;;;;;;5.56;96.43;99466.31;4938139;29;19918;-89
2021/08/26 08:58:38;;;;;;;;;;;;;;;5.61;96.91;99468.81;4955118;29;19925;-93
2021/08/26 09:01:04;;;;;;;;;;;;;;;5.62;96.67;99475.81;4937225;29;19942;-90
2021/08/26 09:03:29;;;;;;;;;;;;;;;5.73;96.74;99472.91;4937792;29;20380;-94
2021/08/26 09:05:55;;;;;;;;;;;;;;;5.80;98.77;99472.66;4937729;29;19919;-89
2021/08/26 09:08:22;;;;;;;;;;;;;;;5.55;97.10;99464.63;4953623;29;19973;-88
2021/08/26 09:10:48;;;;;;;;;;;;;;;5.72;96.54;99458.00;4937625;29;19919;-87
2021/08/26 09:13:13;;;;;;;;;;;;;;;5.74;96.42;99459.69;4954854;29;19922;-90
2021/08/26 09:15:44;;;;;;;;;;;;;;;5.77;96.63;99459.59;4937449;29;19922;-88
2021/08/26 09:18:17;;;;;;;;;;;;;;;5.62;97.00;99450.38;4937038;29;19922;-91
2021/08/26 09:20:50;;;;;;;;;;;;;;;5.75;98.51;99455.31;4936562;29;19919;-87
2021/08/26 09:23:15;;;;;;;;;;;;;;;5.73;98.19;99452.72;4951637;28;19929;-87
2021/08/26 09:25:42;;;;;;;;;;;;;;;5.57;99.34;99451.44;4931317;29;19918;-86
2021/08/26 09:28:07;;;;;;;;;;;;;;;5.56;99.15;99452.31;4937192;29;19922;-88
2021/08/26 09:30:33;;;;;;;;;;;;;;;5.55;99.43;99451.47;4935913;29;20433;-87
2021/08/26 09:33:01;;;;;;;;;;;;;;;5.64;99.46;99448.56;4953788;29;19919;-92
2021/08/26 09:35:26;;;;;;;;;;;;;;;5.75;100.00;99457.94;4936141;29;19982;-87
2021/08/26 09:38:04;;;;;;;;;;;;;;;5.78;100.00;99460.47;4935506;29;19976;-89
2021/08/26 09:40:30;;;;;;;;;;;;;;;6.08;100.00;99463.13;4951920;29;20278;-87
2021/08/26 09:42:56;;;;;;;;;;;;;;;5.95;100.00;99463.47;4952689;29;20000;-86
2021/08/26 09:45:23;;;;;;;;;;;;;;;6.04;100.00;99472.03;4950552;29;19930;-88
2021/08/26 09:48:00;;;;;;;;;;;;;;;6.06;100.00;99470.22;4953315;29;20388;-88
2021/08/26 09:50:35;;;;;;;;;;;;;;;5.90;99.50;99465.34;4954132;29;19922;-87
2021/08/26 09:53:01;;;;;;;;;;;;;;;6.05;100.00;99463.22;4935483;29;20337;-87
2021/08/26 09:55:46;;;;;;;;;;;;;;;5.92;99.25;99463.56;4936637;29;20074;-86
2021/08/26 09:58:12;;;;;;;;;;;;;;;5.82;98.70;99467.34;4936318;29;19991;-86
2021/08/26 10:00:37;;;;;;;;;;;;;;;5.82;98.04;99462.09;4936682;29;19957;-86
2021/08/26 10:03:02;;;;;;;;;;;;;;;5.82;98.53;99456.84;4936569;29;20386;-86
2021/08/26 10:05:28;;;;;;;;;;;;;;;5.87;99.08;99454.97;4936621;29;19929;-86
2021/08/26 10:07:53;;;;;;;;;;;;;;;5.98;98.55;99462.53;4952396;29;19970;-86
2021/08/26 10:10:18;;;;;;;;;;;;;;;5.90;97.86;99457.47;4936590;29;20416;-86
2021/08/26 10:12:44;;;;;;;;;;;;;;;5.88;97.81;99461.91;4930754;29;19961;-85
2021/08/26 10:15:09;;;;;;;;;;;;;;;5.71;97.70;99464.16;4936411;29;19923;-86
2021/08/26 10:17:36;;;;;;;;;;;;;;;5.74;96.87;99467.56;4953804;29;19926;-86
2021/08/26 10:20:01;;;;;;;;;;;;;;;5.63;96.44;99460.00;4936423;29;20435;-85
2021/08/26 10:22:27;;;;;;;;;;;;;;;5.61;96.36;99463.56;4936436;29;20025;-85
2021/08/26 10:24:57;;;;;;;;;;;;;;;5.68;96.59;99459.00;4952357;29;19918;-86
2021/08/26 10:27:27;;;;;;;;;;;;;;;5.62;95.92;99454.78;4952830;29;19970;-87
2021/08/26 10:29:52;;;;;;;;;;;;;;;5.62;95.84;99453.00;4952187;29;20044;-86
2021/08/26 10:32:19;;;;;;;;;;;;;;;5.58;96.22;99453.13;4934271;29;19923;-85
2021/08/26 10:35:17;;;;;;;;;;;;;;;5.48;96.05;99452.53;4953041;28;19929;-86
2021/08/26 10:37:42;;;;;;;;;;;;;;;5.49;96.28;99458.63;4905978;29;19931;-87
2021/08/26 10:40:27;;;;;;;;;;;;;;;5.51;96.46;99455.06;4957106;29;19929;-87
2021/08/26 10:42:53;;;;;;;;;;;;;;;5.43;96.16;99459.69;4939013;29;19923;-86
2021/08/26 10:45:21;;;;;;;;;;;;;;;5.70;96.51;99446.69;4954491;29;19930;-86
2021/08/26 10:47:47;;;;;;;;;;;;;;;5.57;96.06;99447.03;4939330;29;19922;-86
2021/08/26 10:50:36;;;;;;;;;;;;;;;5.56;96.04;99457.59;4939287;29;20279;-87
2021/08/26 10:53:08;;;;;;;;;;;;;;;5.56;95.55;99461.06;4938017;29;19945;-86
2021/08/26 10:55:40;;;;;;;;;;;;;;;5.58;96.41;99461.88;4956778;29;20278;-92
2021/08/26 10:58:18;;;;;;;;;;;;;;;5.49;96.26;99461.25;4938281;29;19930;-91
2021/08/26 11:00:54;;;;;;;;;;;;;;;5.62;96.57;99467.94;4946996;29;19973;-92
2021/08/26 11:03:34;;;;;;;;;;;;;;;5.73;96.89;99467.63;4938524;29;19926;-91
2021/08/26 11:06:01;;;;;;;;;;;;;;;5.64;96.55;99472.22;4940932;29;19926;-93
2021/08/26 11:08:26;;;;;;;;;;;;;;;5.55;95.87;99474.25;4939688;29;19986;-89
2021/08/26 11:10:52;;;;;;;;;;;;;;;5.71;96.88;99465.06;4949361;29;20370;-92
2021/08/26 11:13:28;;;;;;;;;;;;;;;5.64;96.64;99468.75;4940210;29;19937;-90
2021/08/26 11:15:53;;;;;;;;;;;;;;;5.59;95.83;99460.97;4940637;29;19965;-89
2021/08/26 11:18:28;;;;;;;;;;;;;;;5.45;96.04;99458.72;4939982;29;19969;-91
2021/08/26 11:20:58;;;;;;;;;;;;;;;5.43;96.26;99464.94;4939768;29;19929;-91
2021/08/26 11:23:46;;;;;;;;;;;;;;;5.52;96.42;99456.81;4954271;29;20025;-89
2021/08/26 11:26:30;;;;;;;;;;;;;;;5.64;96.58;99464.34;4955070;29;19918;-92
2021/08/26 11:29:15;;;;;;;;;;;;;;;5.52;95.46;99451.56;4955872;29;20005;-91
2021/08/26 11:31:41;;;;;;;;;;;;;;;5.54;95.39;99456.78;4939769;29;19925;-92
2021/08/26 11:34:06;;;;;;;;;;;;;;;5.41;95.64;99451.00;4939748;29;19922;-93
2021/08/26 11:36:31;;;;;;;;;;;;;;;5.57;96.85;99456.69;4939499;29;20053;-90
2021/08/26 11:38:56;;;;;;;;;;;;;;;5.54;95.68;99457.63;4938888;29;19977;-91
2021/08/26 11:41:22;;;;;;;;;;;;;;;5.40;95.44;99457.13;4939517;29;19930;-90
2021/08/26 11:43:50;;;;;;;;;;;;;;;5.53;96.01;99445.38;4939724;29;19965;-93
2021/08/26 11:46:19;;;;;;;;;;;;;;;5.53;95.43;99455.88;4939594;28;20350;-89
2021/08/26 11:48:49;;;;;;;;;;;;;;;5.45;95.34;99455.25;4938654;29;19922;-90
2021/08/26 11:51:23;;;;;;;;;;;;;;;5.35;95.20;99449.38;4956209;29;19953;-91
2021/08/26 11:53:48;;;;;;;;;;;;;;;5.36;94.75;99439.72;4938082;29;20030;-91
2021/08/26 11:56:14;;;;;;;;;;;;;;;5.31;95.21;99439.84;4939306;29;20029;-91
2021/08/26 11:58:41;;;;;;;;;;;;;;;5.33;95.83;99435.44;4939208;29;19926;-92
2021/08/26 12:01:07;;;;;;;;;;;;;;;5.34;95.47;99441.53;4939161;29;20428;-93
2021/08/26 12:03:40;;;;;;;;;;;;;;;5.34;95.21;99433.66;4939093;29;19926;-92
2021/08/26 12:06:31;;;;;;;;;;;;;;;5.39;95.51;99427.38;4934083;29;19919;-93
2021/08/26 12:08:59;;;;;;;;;;;;;;;5.31;96.01;99431.09;4926856;29;20386;-93
2021/08/26 12:11:41;;;;;;;;;;;;;;;5.34;96.02;99433.66;4934127;29;19999;-90
2021/08/26 12:14:09;;;;;;;;;;;;;;;5.33;95.55;99426.66;4934791;29;19926;-93
2021/08/26 12:16:35;;;;;;;;;;;;;;;5.29;95.78;99428.50;4934682;29;20027;-92
2021/08/26 12:19:04;;;;;;;;;;;;;;;5.28;95.79;99438.16;4934555;29;19923;-91
2021/08/26 12:21:29;;;;;;;;;;;;;;;5.30;94.87;99432.00;4918441;29;19923;-92
2021/08/26 12:23:55;;;;;;;;;;;;;;;5.51;95.18;99433.19;4933765;29;20401;-89
2021/08/26 12:26:21;;;;;;;;;;;;;;;5.56;95.69;99432.16;4934387;29;19990;-90
2021/08/26 12:28:47;;;;;;;;;;;;;;;5.55;95.32;99429.56;4917758;29;19978;-91
2021/08/26 12:31:14;;;;;;;;;;;;;;;5.49;95.42;99432.34;4933373;29;19918;-89
2021/08/26 12:33:58;;;;;;;;;;;;;;;5.40;95.48;99438.75;4938573;29;19922;-91
2021/08/26 12:36:23;;;;;;;;;;;;;;;5.41;95.16;99441.31;4938477;29;19918;-90
2021/08/26 12:38:49;;;;;;;;;;;;;;;5.52;95.28;99438.41;4937566;29;20294;-92
2021/08/26 12:41:18;;;;;;;;;;;;;;;5.43;95.22;99439.50;4938316;29;19919;-90
2021/08/26 12:43:46;;;;;;;;;;;;;;;5.40;94.32;99439.59;4938172;29;20449;-92
2021/08/26 12:46:17;;;;;;;;;;;;;;;5.38;94.38;99443.19;4938402;29;19925;-92
2021/08/26 12:48:43;;;;;;;;;;;;;;;5.38;94.30;99435.31;4937460;29;19923;-93
2021/08/26 12:51:09;;;;;;;;;;;;;;;5.41;93.79;99438.69;4938528;29;19946;-92
2021/08/26 12:53:36;;;;;;;;;;;;;;;5.36;94.17;99437.09;4936846;29;19926;-91
2021/08/26 12:56:02;;;;;;;;;;;;;;;5.35;93.93;99436.25;4937968;29;20366;-91
2021/08/26 12:58:30;;;;;;;;;;;;;;;5.26;94.35;99433.84;4937356;29;19919;-94
2021/08/26 13:00:56;;;;;;;;;;;;;;;5.23;95.25;99426.94;4938768;29;19950;-95
2021/08/26 13:03:25;;;;;;;;;;;;;;;5.27;94.69;99439.06;4938596;29;19969;-92
2021/08/26 13:06:03;;;;;;;;;;;;;;;5.30;94.85;99432.00;4938609;29;20263;-93
2021/08/26 13:08:41;;;;;;;;;;;;;;;5.32;94.43;99430.22;4952551;29;19918;-94
2021/08/26 13:11:09;;;;;;;;;;;;;;;5.39;93.97;99426.50;4938346;29;20393;-94
2021/08/26 13:13:37;;;;;;;;;;;;;;;5.40;95.31;99420.34;4938372;29;19957;-94
2021/08/26 13:16:15;;;;;;;;;;;;;;;5.34;94.64;99428.41;4938502;29;19923;-93
2021/08/26 13:18:43;;;;;;;;;;;;;;;5.34;94.47;99421.38;4937028;29;19962;-93
2021/08/26 13:21:16;;;;;;;;;;;;;;;5.34;94.05;99417.88;4938482;29;19966;-94
2021/08/26 13:23:47;;;;;;;;;;;;;;;5.53;95.80;99424.34;4936374;29;19922;-94
2021/08/26 13:26:15;;;;;;;;;;;;;;;5.52;94.72;99422.66;4937995;29;20021;-93
2021/08/26 13:28:41;;;;;;;;;;;;;;;5.51;95.61;99425.31;4937256;29;19918;-93
2021/08/26 13:31:08;;;;;;;;;;;;;;;5.61;95.47;99429.41;4937798;29;19918;-93
2021/08/26 13:33:36;;;;;;;;;;;;;;;5.51;95.82;99428.78;4937869;29;19977;-95
2021/08/26 13:36:02;;;;;;;;;;;;;;;5.41;95.60;99435.22;4952735;29;19918;-94
2021/08/26 13:38:30;;;;;;;;;;;;;;;5.49;95.46;99429.72;4936472;29;19925;-92
2021/08/26 13:40:55;;;;;;;;;;;;;;;5.48;95.44;99435.91;4934489;29;19931;-95
2021/08/26 13:46:31;;;;;;;;;;;;;;;5.63;96.63;99436.34;4901524;29;19992;-94
2021/08/26 13:49:06;;;;;;;;;;;;;;;5.45;94.54;99432.44;4950226;29;19953;-94
2021/08/26 13:51:37;;;;;;;;;;;;;;;5.50;94.10;99431.47;4934468;29;19919;-93
2021/08/26 13:54:10;;;;;;;;;;;;;;;5.54;94.17;99430.50;4932698;29;20009;-93
2021/08/26 13:56:37;;;;;;;;;;;;;;;5.42;94.44;99431.66;4934142;29;19930;-92
2021/08/26 13:59:12;;;;;;;;;;;;;;;5.51;95.22;99428.78;4934528;29;20389;-93
2021/08/26 14:01:45;;;;;;;;;;;;;;;5.43;95.15;99425.53;4934172;29;19923;-92
2021/08/26 14:04:13;;;;;;;;;;;;;;;5.41;95.67;99429.97;4934607;29;19923;-93
2021/08/26 14:06:46;;;;;;;;;;;;;;;5.45;95.70;99427.19;4934181;29;19926;-93
2021/08/26 14:09:14;;;;;;;;;;;;;;;5.55;95.19;99438.34;4933279;29;20370;-92
2021/08/26 14:11:42;;;;;;;;;;;;;;;5.43;94.63;99428.16;4937107;29;19923;-94
2021/08/26 14:14:10;;;;;;;;;;;;;;;5.43;94.80;99434.25;4938181;29;19930;-94
2021/08/26 14:16:35;;;;;;;;;;;;;;;5.42;95.11;99426.41;4938215;29;19949;-94
2021/08/26 14:19:03;;;;;;;;;;;;;;;5.44;94.88;99421.97;4938433;29;20426;-92
2021/08/26 14:21:28;;;;;;;;;;;;;;;5.39;94.54;99411.63;4938288;29;19972;-93
2021/08/26 14:23:57;;;;;;;;;;;;;;;5.42;94.95;99415.91;4937256;29;19966;-93
2021/08/26 14:26:22;;;;;;;;;;;;;;;5.45;95.35;99415.81;4938222;29;20009;-93
2021/08/26 14:28:47;;;;;;;;;;;;;;;5.42;94.62;99421.16;4937716;29;20033;-94
2021/08/26 14:31:13;;;;;;;;;;;;;;;5.43;94.92;99412.38;4938122;29;19919;-94
2021/08/26 14:33:38;;;;;;;;;;;;;;;5.51;94.36;99413.03;4937770;29;19922;-92
2021/08/26 14:36:04;;;;;;;;;;;;;;;5.44;94.12;99412.34;4937794;29;19915;-92
2021/08/26 14:38:30;;;;;;;;;;;;;;;5.36;94.12;99409.06;4936398;29;19926;-92
2021/08/26 14:40:58;;;;;;;;;;;;;;;5.39;94.57;99411.63;4936645;29;20334;-91
2021/08/26 14:43:25;;;;;;;;;;;;;;;5.36;93.58;99416.06;4953520;29;19927;-94
2021/08/26 14:45:51;;;;;;;;;;;;;;;5.32;93.65;99409.19;4937675;29;19929;-92
2021/08/26 14:48:16;;;;;;;;;;;;;;;5.35;93.79;99407.34;4951272;29;19919;-92
2021/08/26 14:50:42;;;;;;;;;;;;;;;5.38;93.75;99412.50;4937309;29;20366;-92
2021/08/26 14:53:07;;;;;;;;;;;;;;;5.34;93.76;99410.00;4936263;29;19922;-93
2021/08/26 14:55:33;;;;;;;;;;;;;;;5.39;94.54;99413.34;4937364;29;19942;-91
2021/08/26 14:57:58;;;;;;;;;;;;;;;5.21;94.13;99412.97;4937503;29;19930;-94
2021/08/26 15:00:24;;;;;;;;;;;;;;;5.32;93.80;99406.56;4937498;29;20362;-93
2021/08/26 15:02:49;;;;;;;;;;;;;;;5.36;93.95;99408.19;4937248;29;19927;-93
2021/08/26 15:05:14;;;;;;;;;;;;;;;5.34;93.89;99407.38;4937128;29;19926;-93
2021/08/26 15:07:40;;;;;;;;;;;;;;;5.39;93.61;99405.47;4935951;29;19974;-91
2021/08/26 15:10:06;;;;;;;;;;;;;;;5.32;93.51;99398.69;4937400;29;20448;-93
2021/08/26 15:12:34;;;;;;;;;;;;;;;5.24;93.88;99405.00;4937206;29;19919;-92
2021/08/26 15:15:00;;;;;;;;;;;;;;;5.24;93.85;99399.75;4936457;29;19954;-92
2021/08/26 15:17:27;;;;;;;;;;;;;;;5.29;94.22;99399.63;4937138;29;20466;-92
2021/08/26 15:19:52;;;;;;;;;;;;;;;5.33;94.02;99401.28;4937024;29;20270;-92
2021/08/26 15:22:18;;;;;;;;;;;;;;;5.39;93.82;99393.22;4936752;29;19919;-93
2021/08/26 15:24:44;;;;;;;;;;;;;;;5.38;93.65;99395.88;4935748;29;19930;-92
2021/08/26 15:27:09;;;;;;;;;;;;;;;5.25;93.87;99398.84;4936876;29;19958;-92
2021/08/26 15:29:34;;;;;;;;;;;;;;;5.25;94.24;99398.00;4932500;29;19941;-93
2021/08/26 15:32:06;;;;;;;;;;;;;;;5.17;94.56;99406.06;4938076;29;19923;-91
2021/08/26 15:34:31;;;;;;;;;;;;;;;5.22;94.39;99400.69;4937169;29;19923;-91
2021/08/26 15:36:57;;;;;;;;;;;;;;;5.18;93.99;99399.06;4937230;29;19919;-89
2021/08/26 15:39:22;;;;;;;;;;;;;;;5.24;93.43;99401.50;4940766;29;19970;-91
2021/08/26 15:41:48;;;;;;;;;;;;;;;5.21;93.79;99402.44;4940939;29;20425;-91
2021/08/26 15:44:14;;;;;;;;;;;;;;;5.16;93.75;99406.13;4939352;29;20009;-91
2021/08/26 15:46:41;;;;;;;;;;;;;;;5.24;93.18;99404.16;4940634;29;19978;-92
2021/08/26 15:49:06;;;;;;;;;;;;;;;5.15;93.65;99397.34;4939448;29;19922;-92
2021/08/26 15:52:54;;;;;;;;;;;;;;;5.22;93.51;99403.34;4940954;29;19921;-93
2021/08/26 15:57:54;;;;;;;;;;;;;;;5.18;94.02;99397.28;4938219;29;19922;-92
2021/08/26 16:02:45;;;;;;;;;;;;;;;5.22;93.69;99398.06;4955724;29;19918;-91
2021/08/26 16:05:10;;;;;;;;;;;;;;;5.11;94.52;99400.97;4940315;29;19918;-91
2021/08/26 16:07:36;;;;;;;;;;;;;;;5.12;94.42;99400.06;4938977;29;19929;-86
2021/08/26 16:10:02;;;;;;;;;;;;;;;5.12;94.84;99393.97;4954607;29;19926;-90
2021/08/26 16:12:27;;;;;;;;;;;;;;;5.11;94.67;99394.88;4939916;29;19926;-89
2021/08/26 16:14:55;;;;;;;;;;;;;;;5.21;94.68;99398.97;4937579;29;19969;-89
2021/08/26 16:17:20;;;;;;;;;;;;;;;5.09;94.97;99397.53;4939119;29;19930;-90
2021/08/26 16:19:46;;;;;;;;;;;;;;;5.14;95.30;99408.78;4939023;29;19922;-91
2021/08/26 16:22:11;;;;;;;;;;;;;;;5.15;95.05;99399.13;4939416;29;19919;-90
2021/08/26 16:24:36;;;;;;;;;;;;;;;5.13;95.28;99404.44;4937232;29;19930;-90
2021/08/26 16:27:02;;;;;;;;;;;;;;;5.17;95.07;99399.94;4938778;29;20069;-90
2021/08/26 16:29:30;;;;;;;;;;;;;;;5.09;94.86;99405.44;4939031;29;19923;-91
2021/08/26 16:31:58;;;;;;;;;;;;;;;5.22;95.16;99405.97;4936475;29;20566;-90
2021/08/26 16:34:27;;;;;;;;;;;;;;;5.08;95.31;99403.69;4953278;28;19927;-90
2021/08/26 16:36:52;;;;;;;;;;;;;;;5.21;95.17;99407.69;4938760;29;19929;-90
2021/08/26 16:39:18;;;;;;;;;;;;;;;5.15;94.84;99404.38;4937819;29;19922;-90
2021/08/26 16:41:44;;;;;;;;;;;;;;;5.18;95.23;99410.41;4938254;29;20331;-90
2021/08/26 16:44:12;;;;;;;;;;;;;;;5.18;94.59;99406.94;4938387;29;19929;-90
2021/08/26 16:46:38;;;;;;;;;;;;;;;5.16;94.86;99399.09;4936791;29;19926;-90
2021/08/26 16:49:03;;;;;;;;;;;;;;;5.22;94.60;99401.56;4938302;29;19926;-90
2021/08/26 16:51:28;;;;;;;;;;;;;;;5.14;94.90;99402.66;4938168;29;19923;-90
2021/08/26 16:53:54;;;;;;;;;;;;;;;5.17;94.26;99395.56;4937408;29;20266;-91
2021/08/26 16:56:19;;;;;;;;;;;;;;;5.05;94.40;99401.16;4938857;29;19933;-89
2021/08/26 16:58:44;;;;;;;;;;;;;;;5.18;95.01;99402.53;4938630;29;19922;-91
2021/08/26 17:01:10;;;;;;;;;;;;;;;5.08;94.91;99403.69;4937951;29;19965;-91
2021/08/26 17:03:36;;;;;;;;;;;;;;;5.12;95.18;99407.94;4938127;29;20297;-90
2021/08/26 17:06:01;;;;;;;;;;;;;;;5.05;94.74;99403.78;4937793;29;19922;-90
2021/08/26 17:08:27;;;;;;;;;;;;;;;5.13;94.96;99409.69;4937368;29;19962;-90
2021/08/26 17:10:52;;;;;;;;;;;;;;;5.18;94.81;99410.41;4937839;29;19923;-90
2021/08/26 17:13:17;;;;;;;;;;;;;;;5.18;94.87;99412.19;4955433;29;19991;-90
2021/08/26 17:15:43;;;;;;;;;;;;;;;5.16;94.96;99404.34;4937077;29;19922;-90
2021/08/26 17:18:08;;;;;;;;;;;;;;;5.16;95.27;99414.84;4937960;29;19927;-89
2021/08/26 17:20:34;;;;;;;;;;;;;;;5.11;96.11;99410.63;4937202;29;20385;-88
2021/08/26 17:23:01;;;;;;;;;;;;;;;5.16;95.32;99412.22;4936520;29;20310;-91
2021/08/26 17:25:26;;;;;;;;;;;;;;;5.18;95.20;99402.53;4937608;29;19932;-91
2021/08/26 17:27:54;;;;;;;;;;;;;;;5.17;94.95;99411.34;4953495;29;19974;-90
2021/08/26 17:30:19;;;;;;;;;;;;;;;5.18;94.70;99413.03;4937213;29;19929;-90
2021/08/26 17:32:44;;;;;;;;;;;;;;;5.17;94.90;99411.34;4936565;29;19930;-90
2021/08/26 17:35:10;;;;;;;;;;;;;;;5.15;95.05;99418.38;4936296;29;20013;-87
2021/08/26 17:37:42;;;;;;;;;;;;;;;5.14;95.58;99415.78;4936156;29;19922;-89
2021/08/26 17:40:08;;;;;;;;;;;;;;;5.19;95.29;99419.16;4937325;29;19922;-90
2021/08/26 17:42:33;;;;;;;;;;;;;;;5.16;95.33;99414.00;4937776;29;19922;-88
2021/08/26 17:44:58;;;;;;;;;;;;;;;5.15;95.29;99414.88;4955098;28;19918;-90
2021/08/26 17:47:23;;;;;;;;;;;;;;;5.18;95.50;99422.69;4935906;29;19926;-91
2021/08/26 17:49:49;;;;;;;;;;;;;;;5.17;95.25;99416.59;4937400;29;20028;-88
2021/08/26 17:52:14;;;;;;;;;;;;;;;5.17;95.27;99419.22;4935779;29;19918;-90
2021/08/26 17:54:39;;;;;;;;;;;;;;;5.18;94.89;99417.44;4952423;29;19954;-89
2021/08/26 17:57:05;;;;;;;;;;;;;;;5.19;95.26;99427.91;4935648;29;20059;-91
2021/08/26 17:59:30;;;;;;;;;;;;;;;5.24;95.21;99420.75;4936676;29;19969;-87
2021/08/26 18:01:55;;;;;;;;;;;;;;;5.24;94.84;99422.53;4936411;29;19929;-89
2021/08/26 18:04:21;;;;;;;;;;;;;;;5.20;95.07;99424.38;4937789;29;19930;-90
2021/08/26 18:06:46;;;;;;;;;;;;;;;5.21;95.03;99428.72;4937630;29;20379;-89
2021/08/26 18:09:11;;;;;;;;;;;;;;;5.24;94.62;99425.16;4936678;29;19923;-91
2021/08/26 18:11:37;;;;;;;;;;;;;;;5.24;94.58;99427.78;4937657;29;19929;-90
2021/08/26 18:14:06;;;;;;;;;;;;;;;5.27;94.91;99428.56;4954763;29;20293;-89
2021/08/26 18:16:32;;;;;;;;;;;;;;;5.31;94.54;99429.31;4953907;29;19919;-89
2021/08/26 18:18:57;;;;;;;;;;;;;;;5.16;95.34;99433.22;4937074;29;19918;-90
2021/08/26 18:21:23;;;;;;;;;;;;;;;5.29;95.29;99436.41;4937454;29;19983;-88
2021/08/26 18:23:48;;;;;;;;;;;;;;;5.21;94.96;99436.59;4935931;29;20374;-90
2021/08/26 18:26:13;;;;;;;;;;;;;;;5.19;95.11;99446.28;4953989;29;19923;-88
2021/08/26 18:28:39;;;;;;;;;;;;;;;5.21;95.37;99443.63;4952979;29;19919;-89
2021/08/26 18:31:04;;;;;;;;;;;;;;;5.23;95.37;99447.06;4936519;29;19965;-88
2021/08/26 18:33:29;;;;;;;;;;;;;;;5.23;95.09;99447.94;4937277;29;19922;-90
2021/08/26 18:35:54;;;;;;;;;;;;;;;5.15;95.40;99449.88;4937058;29;20362;-91
2021/08/26 18:38:20;;;;;;;;;;;;;;;5.18;95.36;99449.81;4936117;29;19933;-89
2021/08/26 18:40:45;;;;;;;;;;;;;;;5.22;95.03;99451.47;4953056;29;19926;-90
2021/08/26 18:43:10;;;;;;;;;;;;;;;5.20;94.71;99453.28;4935281;29;19923;-91
2021/08/26 18:45:36;;;;;;;;;;;;;;;10.47;100.00;99443.66;4936579;29;19937;-79
2021/08/26 18:48:01;;;;;;;;;;;;;;;7.36;89.55;99454.63;4952879;29;19919;-87
2021/08/26 18:50:26;;;;;;;;;;;;;;;5.95;96.02;99455.59;4935785;29;19969;-87
2021/08/26 18:52:52;;;;;;;;;;;;;;;5.68;96.56;99461.63;4948944;29;20746;-86
2021/08/26 18:55:17;;;;;;;;;;;;;;;5.58;96.21;99468.91;4936153;29;19923;-86
2021/08/26 18:57:42;;;;;;;;;;;;;;;5.51;95.78;99470.00;4938386;29;19929;-86
2021/08/26 19:00:08;;;;;;;;;;;;;;;10.63;78.97;99454.38;4938781;29;20385;-85
2021/08/26 19:02:33;;;;;;;;;;;;;;;6.80;94.94;99467.97;4933953;29;20013;-85
2021/08/26 19:04:59;;;;;;;;;;;;;;;6.08;97.54;99479.81;4939542;29;20396;-86